createdAt,value
2022-10-14T00:03:39.602Z,100633.97
2022-10-14T00:13:41.271Z,100632.31
2022-10-14T00:23:43.807Z,100637.44
2022-10-14T00:33:45.797Z,100629.81
2022-10-14T00:43:59.795Z,100619.47
2022-10-14T00:54:01.780Z,100626.31
2022-10-14T01:04:09.491Z,100623.69
2022-10-14T01:14:45.872Z,100609.09
2022-10-14T01:25:10.722Z,100619.41
2022-10-14T01:35:21.584Z,100617.56
2022-10-14T01:45:27.958Z,100604.72
2022-10-14T01:55:35.235Z,100582.31
2022-10-14T02:05:42.574Z,100593.44
2022-10-14T02:16:49.703Z,100589.97
2022-10-14T02:26:55.009Z,100592.53
2022-10-14T02:37:00.707Z,100583.97
2022-10-14T02:47:04.641Z,100590.91
2022-10-14T02:57:06.247Z,100590.00
2022-10-14T03:07:09.043Z,100585.69
2022-10-14T03:17:11.794Z,100588.19
2022-10-14T03:27:13.335Z,100587.34
2022-10-14T03:37:14.909Z,100579.78
2022-10-14T03:47:16.679Z,100581.50
2022-10-14T03:57:18.303Z,100574.69
2022-10-14T04:07:20.194Z,100570.63
2022-10-14T04:17:24.721Z,100559.47
2022-10-14T04:27:26.391Z,100550.78
2022-10-14T04:37:29.207Z,100557.63
2022-10-14T04:47:31.168Z,100558.44
2022-10-14T04:57:35.066Z,100560.84
2022-10-14T05:07:39.656Z,100566.75
2022-10-14T05:17:44.822Z,100570.38
2022-10-14T05:27:46.955Z,100550.81
2022-10-14T05:37:48.819Z,100573.38
2022-10-14T05:47:50.839Z,100576.19
2022-10-14T05:57:56.682Z,100583.19
2022-10-14T06:07:58.899Z,100585.81
2022-10-14T06:18:00.569Z,100598.88
2022-10-14T06:28:05.550Z,100606.69
2022-10-14T06:38:07.138Z,100602.44
2022-10-14T06:48:13.415Z,100611.09
2022-10-14T06:58:29.102Z,100588.69
2022-10-14T07:08:31.101Z,100616.13
2022-10-14T07:18:33.066Z,100608.28
2022-10-14T07:28:34.771Z,100617.53
2022-10-14T07:38:37.287Z,100607.66
2022-10-14T07:48:57.713Z,100607.06
2022-10-14T07:58:59.779Z,100602.34
2022-10-14T08:09:08.305Z,100591.25
2022-10-14T08:19:14.663Z,100587.75
2022-10-14T08:29:17.149Z,100588.53
2022-10-14T08:39:19.772Z,100588.00
2022-10-14T08:49:31.398Z,100578.91
2022-10-14T08:59:41.269Z,100567.50
2022-10-14T09:09:50.317Z,100580.44
2022-10-14T09:20:00.653Z,100575.97
2022-10-14T09:30:10.301Z,100565.28
2022-10-14T09:40:13.215Z,100577.72
2022-10-14T09:50:25.702Z,100565.47
2022-10-14T10:00:34.587Z,100562.47
2022-10-14T10:10:36.943Z,100565.66
2022-10-14T10:20:38.510Z,100555.56
2022-10-14T10:30:58.211Z,100549.09
2022-10-14T10:41:16.837Z,100526.63
2022-10-14T10:51:46.451Z,100523.84
2022-10-14T11:02:25.623Z,100512.59
2022-10-14T11:12:52.577Z,100497.03
2022-10-14T11:23:20.420Z,100499.28
2022-10-14T11:33:46.821Z,100484.50
2022-10-14T11:44:29.090Z,100478.84
2022-10-14T11:54:36.922Z,100473.41
2022-10-14T12:05:20.057Z,100461.81
2022-10-14T12:15:25.982Z,100460.16
2022-10-14T12:25:36.804Z,100460.59
2022-10-14T12:35:52.402Z,100444.09
2022-10-14T12:45:58.428Z,100434.47
2022-10-14T12:56:02.320Z,100433.81
2022-10-14T13:06:37.123Z,100422.50
2022-10-14T13:16:38.850Z,100421.56
2022-10-14T13:26:53.971Z,100417.91
2022-10-14T13:37:11.801Z,100415.59
2022-10-14T13:47:15.017Z,100410.41
2022-10-14T13:57:47.975Z,100404.78
2022-10-14T14:18:01.082Z,100384.16
2022-10-14T14:28:06.749Z,100384.72
2022-10-14T14:38:34.456Z,100384.41
2022-10-14T14:48:38.560Z,100389.94
2022-10-14T14:58:55.501Z,100384.13
2022-10-14T15:09:10.401Z,100371.47
2022-10-14T15:19:37.234Z,100374.09
2022-10-14T15:29:40.321Z,100375.78
2022-10-14T15:39:41.889Z,100374.44
2022-10-14T15:49:45.219Z,100384.81
2022-10-14T15:59:46.832Z,100386.59
2022-10-14T16:09:52.688Z,100378.06
2022-10-14T16:19:56.096Z,100403.38
2022-10-14T16:30:13.545Z,100415.63
2022-10-14T16:40:25.815Z,100410.03
2022-10-14T16:50:28.659Z,100422.50
2022-10-14T17:00:30.324Z,100419.47
2022-10-14T17:10:38.915Z,100420.78
2022-10-14T17:20:40.534Z,100416.09
2022-10-14T17:30:43.043Z,100408.66
2022-10-14T17:40:44.694Z,100420.84
2022-10-14T17:50:49.784Z,100422.72
2022-10-14T18:00:51.652Z,100420.50
2022-10-14T18:10:53.409Z,100431.03
2022-10-14T18:20:57.276Z,100426.13
2022-10-14T18:31:04.392Z,100435.06
2022-10-14T18:41:11.723Z,100429.16
2022-10-14T18:51:17.104Z,100428.63
2022-10-14T19:01:38.430Z,100412.59
2022-10-14T19:11:44.519Z,100413.69
2022-10-14T19:21:49.268Z,100450.91
2022-10-14T19:31:54.926Z,100463.06
2022-10-14T19:42:01.824Z,100456.25
2022-10-14T19:52:04.529Z,100453.78
2022-10-14T20:02:08.281Z,100459.88
2022-10-14T20:12:09.958Z,100473.81
2022-10-14T20:22:11.752Z,100464.44
2022-10-14T20:32:13.327Z,100443.84
2022-10-14T20:42:16.467Z,100455.03
2022-10-14T20:52:18.324Z,100449.88
2022-10-14T21:02:21.732Z,100458.56
2022-10-14T21:12:23.567Z,100452.53
2022-10-14T21:22:25.608Z,100444.81
2022-10-14T21:32:30.524Z,100450.78
2022-10-14T21:42:32.089Z,100450.78
2022-10-14T21:52:36.544Z,100432.75
2022-10-14T22:02:41.248Z,100437.75
2022-10-14T22:12:42.844Z,100422.19
2022-10-14T22:22:45.287Z,100419.72
2022-10-14T22:32:46.923Z,100423.22
2022-10-14T22:42:51.424Z,100425.06
2022-10-14T22:52:54.041Z,100432.81
2022-10-14T23:02:55.871Z,100423.34
2022-10-14T23:12:57.538Z,100424.31
2022-10-14T23:23:02.393Z,100438.94
2022-10-14T23:33:05.626Z,100428.63
2022-10-14T23:43:09.022Z,100441.56
2022-10-14T23:53:11.439Z,100438.13
